Time;durP1;ratioP1;P1;durP2;ratioP2;P2;SDS_P1;SDS_P2;PMS_P1;PMS_P2;Temp;Humidity;BMP_temperature;BMP_pressure;BME280_temperature;BME280_humidity;BME280_pressure;Samples;Min_cycle;Max_cycle;Signal;HPM_P1;HPM_P2
2021/11/15 00:00:29;;;;;;;56.33;20.25;;;9.40;97.80;;;;;;5071910;28;20124;-72
2021/11/15 00:02:55;;;;;;;60.05;19.67;;;9.50;97.70;;;;;;5072040;28;20039;-71
2021/11/15 00:05:22;;;;;;;59.17;20.02;;;9.50;97.60;;;;;;5071962;28;20032;-72
2021/11/15 00:07:47;;;;;;;67.33;20.20;;;9.50;97.60;;;;;;5071935;28;20032;-72
2021/11/15 00:10:16;;;;;;;58.38;19.67;;;9.50;97.60;;;;;;5074163;28;20752;-72
2021/11/15 01:03:40;;;;;;;67.22;19.00;;;9.20;97.60;;;;;;4914416;29;20046;-71
2021/11/15 01:09:28;;;;;;;67.70;20.58;;;9.20;97.60;;;;;;4917986;29;20518;-72
2021/11/15 01:15:18;;;;;;;64.13;19.17;;;9.20;97.70;;;;;;4917888;29;20035;-70
2021/11/15 01:21:05;;;;;;;51.55;18.25;;;9.30;97.50;;;;;;4918086;29;20050;-71
2021/11/15 01:26:53;;;;;;;59.58;17.25;;;9.20;97.40;;;;;;4917977;29;20040;-72
2021/11/15 01:32:41;;;;;;;56.17;17.38;;;9.20;97.30;;;;;;4918010;29;20031;-69
2021/11/15 01:38:29;;;;;;;53.10;17.00;;;9.20;97.20;;;;;;4917812;29;20034;-71
2021/11/15 01:44:16;;;;;;;59.83;19.05;;;9.20;97.20;;;;;;4918098;29;20037;-70
2021/11/15 01:50:06;;;;;;;60.83;19.73;;;9.10;97.10;;;;;;4920506;29;20047;-71
2021/11/15 01:55:54;;;;;;;56.40;18.90;;;9.00;97.00;;;;;;4921680;29;20027;-71
2021/11/15 01:58:20;;;;;;;59.20;19.48;;;9.10;97.00;;;;;;4923944;29;20023;-70
2021/11/15 02:00:51;;;;;;;52.38;18.00;;;9.00;96.90;;;;;;4937975;29;20076;-70
2021/11/15 02:03:19;;;;;;;64.95;21.15;;;9.00;96.80;;;;;;4945532;29;20043;-71
2021/11/15 02:05:45;;;;;;;63.88;20.30;;;9.00;96.90;;;;;;4957319;29;20027;-72
2021/11/15 02:08:11;;;;;;;66.88;22.35;;;8.90;96.70;;;;;;4939910;29;20038;-71
2021/11/15 02:10:38;;;;;;;64.13;21.95;;;8.90;96.60;;;;;;4956600;29;20031;-71
2021/11/15 02:13:03;;;;;;;60.10;22.02;;;8.90;96.60;;;;;;4956706;29;20520;-71
2021/11/15 02:15:29;;;;;;;67.18;23.05;;;8.90;96.70;;;;;;4956716;29;20039;-70
2021/11/15 02:17:55;;;;;;;71.10;25.70;;;8.90;96.80;;;;;;4956445;29;20491;-70
2021/11/15 02:20:25;;;;;;;68.90;24.42;;;8.80;96.80;;;;;;4957086;29;20039;-71
2021/11/15 02:22:53;;;;;;;73.30;24.48;;;8.70;96.90;;;;;;4956597;29;20185;-72
2021/11/15 02:25:24;;;;;;;69.72;23.77;;;8.90;96.90;;;;;;4939574;29;20103;-70
2021/11/15 02:27:50;;;;;;;68.90;22.83;;;8.80;96.70;;;;;;4956578;29;20027;-70
2021/11/15 02:30:20;;;;;;;73.22;24.33;;;8.80;96.60;;;;;;4956383;29;20541;-70
2021/11/15 02:32:46;;;;;;;64.72;21.10;;;8.80;96.60;;;;;;4956601;29;20035;-70
2021/11/15 02:35:13;;;;;;;69.35;24.33;;;8.90;96.70;;;;;;4959691;28;20053;-70
2021/11/15 02:37:40;;;;;;;65.60;22.17;;;8.80;96.60;;;;;;4975708;28;20027;-70
2021/11/15 02:40:07;;;;;;;88.88;25.48;;;8.80;96.60;;;;;;4975615;28;20039;-71
2021/11/15 02:42:34;;;;;;;77.18;24.35;;;8.80;96.50;;;;;;4975233;28;20031;-69
2021/11/15 02:45:00;;;;;;;79.05;25.92;;;8.90;96.60;;;;;;4975329;28;20037;-70
2021/11/15 02:47:26;;;;;;;72.95;24.23;;;8.90;96.80;;;;;;4975777;28;20372;-71
2021/11/15 02:49:51;;;;;;;77.95;24.67;;;8.90;96.60;;;;;;4975326;28;20490;-71
2021/11/15 02:52:17;;;;;;;82.03;26.60;;;8.90;96.60;;;;;;4975220;28;20031;-70
2021/11/15 02:54:44;;;;;;;86.10;27.08;;;8.90;96.70;;;;;;4975191;28;20039;-70
2021/11/15 02:57:15;;;;;;;79.15;26.10;;;9.00;96.60;;;;;;4957904;28;20018;-71
2021/11/15 02:59:40;;;;;;;80.18;25.45;;;8.90;96.50;;;;;;4958047;28;20027;-71
2021/11/15 03:02:06;;;;;;;84.35;26.75;;;8.70;96.60;;;;;;4974255;28;20030;-71
2021/11/15 03:04:31;;;;;;;87.55;28.17;;;8.80;96.90;;;;;;4975027;28;20030;-71
2021/11/15 03:06:57;;;;;;;79.72;28.65;;;8.90;96.80;;;;;;4957805;28;20467;-71
2021/11/15 03:09:23;;;;;;;79.70;27.58;;;9.00;96.70;;;;;;4975179;28;20519;-70
2021/11/15 03:11:48;;;;;;;82.90;27.42;;;9.00;96.60;;;;;;4975321;28;20023;-71
2021/11/15 03:14:14;;;;;;;86.55;28.70;;;9.00;96.60;;;;;;4974941;28;20419;-72
2021/11/15 03:16:40;;;;;;;83.60;28.35;;;9.00;96.50;;;;;;4974880;28;20019;-71
2021/11/15 03:19:05;;;;;;;82.32;29.20;;;9.00;96.60;;;;;;4957661;28;20090;-70
2021/11/15 03:21:31;;;;;;;82.40;28.23;;;9.00;96.70;;;;;;4974715;28;20053;-71
2021/11/15 03:23:57;;;;;;;84.65;29.85;;;8.90;96.60;;;;;;4974484;28;20424;-71
2021/11/15 03:26:26;;;;;;;91.57;30.83;;;8.80;96.60;;;;;;4975173;28;20023;-71
2021/11/15 03:28:54;;;;;;;87.13;29.63;;;8.90;96.70;;;;;;4974599;28;20039;-71
2021/11/15 03:31:34;;;;;;;85.20;28.30;;;9.00;96.50;;;;;;4974709;28;20035;-71
2021/11/15 03:34:11;;;;;;;86.88;30.17;;;9.10;96.40;;;;;;4974786;28;20428;-71
2021/11/15 03:36:38;;;;;;;86.85;29.60;;;9.10;96.40;;;;;;4974593;28;20583;-70
2021/11/15 03:39:06;;;;;;;96.77;31.20;;;9.00;96.30;;;;;;4957199;28;20082;-69
2021/11/15 03:41:36;;;;;;;88.90;31.40;;;8.80;96.60;;;;;;4975094;28;20061;-72
2021/11/15 03:44:03;;;;;;;80.43;29.48;;;8.90;96.70;;;;;;4974391;28;20524;-70
2021/11/15 03:46:28;;;;;;;89.95;30.50;;;8.90;96.60;;;;;;4974374;28;20054;-71
2021/11/15 03:48:54;;;;;;;93.93;31.40;;;9.00;96.40;;;;;;4957076;28;20069;-71
2021/11/15 03:51:20;;;;;;;90.85;31.52;;;8.90;96.40;;;;;;4957190;28;20039;-71
2021/11/15 03:53:47;;;;;;;91.03;33.28;;;9.00;96.50;;;;;;4974649;28;20444;-70
2021/11/15 03:56:24;;;;;;;90.53;32.03;;;9.10;96.40;;;;;;4974197;28;20464;-69
2021/11/15 03:58:51;;;;;;;88.95;31.02;;;9.10;96.30;;;;;;4973970;28;20043;-69
2021/11/15 04:01:17;;;;;;;85.20;29.98;;;9.10;96.30;;;;;;4974082;28;20056;-69
2021/11/15 04:03:45;;;;;;;92.43;31.67;;;9.10;96.30;;;;;;4973836;28;20046;-71
2021/11/15 04:06:23;;;;;;;90.70;31.50;;;9.10;96.30;;;;;;4973922;28;20030;-70
2021/11/15 04:08:50;;;;;;;88.68;33.15;;;9.10;96.40;;;;;;4974375;28;20019;-70
2021/11/15 04:11:19;;;;;;;95.45;33.30;;;9.10;96.30;;;;;;4973606;28;20034;-70
2021/11/15 04:13:47;;;;;;;83.07;30.55;;;9.10;96.00;;;;;;4973674;28;20476;-70
2021/11/15 04:16:15;;;;;;;80.95;30.20;;;8.90;95.90;;;;;;4973777;28;20476;-70
2021/11/15 04:18:45;;;;;;;79.80;29.15;;;8.90;96.10;;;;;;4973658;28;20038;-70
2021/11/15 04:21:12;;;;;;;87.38;30.83;;;8.90;96.10;;;;;;4973698;28;20042;-70
2021/11/15 04:23:38;;;;;;;85.97;31.33;;;9.00;96.00;;;;;;4974073;28;20421;-69
2021/11/15 04:26:04;;;;;;;78.13;30.38;;;8.90;95.90;;;;;;4973662;28;20038;-70
2021/11/15 04:28:30;;;;;;;84.85;30.15;;;8.90;96.00;;;;;;4956287;28;20337;-71
2021/11/15 04:30:56;;;;;;;76.38;27.92;;;8.90;96.10;;;;;;4973625;28;20042;-69
2021/11/15 04:33:23;;;;;;;68.10;26.65;;;8.80;95.90;;;;;;4973855;28;20046;-71
2021/11/15 04:35:49;;;;;;;67.40;25.20;;;8.90;95.70;;;;;;4973985;28;20037;-71
2021/11/15 04:38:15;;;;;;;62.22;22.95;;;8.90;95.60;;;;;;4973392;28;20030;-71
2021/11/15 04:40:41;;;;;;;63.08;23.25;;;8.90;95.30;;;;;;4973176;28;20050;-71
2021/11/15 04:43:06;;;;;;;65.07;24.45;;;8.80;95.40;;;;;;4973126;28;20305;-71
2021/11/15 04:45:32;;;;;;;67.32;26.20;;;8.60;95.30;;;;;;4973227;28;20041;-71
2021/11/15 04:47:58;;;;;;;66.47;25.63;;;8.40;95.40;;;;;;4973156;28;20030;-70
2021/11/15 04:50:24;;;;;;;64.88;25.92;;;8.40;95.70;;;;;;4973778;28;20044;-71
2021/11/15 04:52:50;;;;;;;68.82;27.92;;;8.40;95.60;;;;;;4973145;28;20027;-71
2021/11/15 04:55:18;;;;;;;60.97;24.50;;;8.30;95.60;;;;;;4972860;28;20027;-70
2021/11/15 04:57:44;;;;;;;66.75;26.30;;;8.40;95.70;;;;;;4973149;28;20023;-69
2021/11/15 05:00:18;;;;;;;62.70;25.00;;;8.50;95.60;;;;;;4972652;28;20023;-71
2021/11/15 05:02:45;;;;;;;65.30;25.60;;;8.50;95.60;;;;;;4973177;28;20054;-71
2021/11/15 05:05:11;;;;;;;64.75;25.17;;;8.60;95.60;;;;;;4973034;28;20038;-71
2021/11/15 05:07:36;;;;;;;66.78;25.77;;;8.70;95.50;;;;;;4972770;28;20027;-71
2021/11/15 05:10:03;;;;;;;57.17;24.42;;;8.60;95.40;;;;;;4972798;28;20043;-70
2021/11/15 05:12:32;;;;;;;58.45;24.33;;;8.80;95.50;;;;;;4972717;28;20031;-71
2021/11/15 05:14:58;;;;;;;59.75;24.42;;;8.60;95.30;;;;;;4972643;28;20019;-70
2021/11/15 05:17:24;;;;;;;66.28;24.77;;;8.60;95.40;;;;;;4973251;28;20045;-70
2021/11/15 05:19:49;;;;;;;64.30;25.55;;;8.80;95.30;;;;;;4972512;28;20046;-70
2021/11/15 05:22:15;;;;;;;55.42;23.42;;;8.70;95.20;;;;;;4972485;28;20103;-69
2021/11/15 05:24:41;;;;;;;62.10;25.83;;;8.80;95.20;;;;;;4972022;28;20101;-70
2021/11/15 05:27:06;;;;;;;57.35;24.17;;;8.70;95.40;;;;;;4972491;28;20023;-70
2021/11/15 05:29:32;;;;;;;60.17;22.85;;;8.70;95.10;;;;;;4955868;28;20045;-69
2021/11/15 05:31:58;;;;;;;58.28;24.50;;;8.70;95.00;;;;;;4972513;28;20166;-71
2021/11/15 05:34:23;;;;;;;54.65;23.08;;;8.70;95.00;;;;;;4972549;28;20102;-70
2021/11/15 05:36:49;;;;;;;52.95;22.05;;;8.70;94.90;;;;;;4972562;28;20038;-71
2021/11/15 05:39:14;;;;;;;57.90;23.42;;;8.70;94.80;;;;;;4972212;28;20046;-70
2021/11/15 05:41:40;;;;;;;53.65;22.65;;;8.60;94.90;;;;;;4972889;28;20086;-70
2021/11/15 05:44:06;;;;;;;57.95;23.05;;;8.40;94.90;;;;;;4972440;28;20540;-71
2021/11/15 05:46:31;;;;;;;49.63;22.38;;;8.60;95.20;;;;;;4972347;28;20373;-71
2021/11/15 05:48:58;;;;;;;56.15;23.17;;;8.60;95.00;;;;;;4972306;28;20361;-71
2021/11/15 05:51:23;;;;;;;60.90;24.05;;;8.70;94.90;;;;;;4972312;28;20023;-71
2021/11/15 05:53:49;;;;;;;60.80;24.00;;;8.70;94.80;;;;;;4972656;28;20030;-71
2021/11/15 05:56:15;;;;;;;60.92;24.10;;;8.70;94.90;;;;;;4972370;28;20082;-70
2021/11/15 05:58:41;;;;;;;59.53;24.27;;;8.70;95.00;;;;;;4972121;28;20054;-70
2021/11/15 06:01:06;;;;;;;60.20;22.15;;;8.70;95.00;;;;;;4972059;28;20117;-70
2021/11/15 06:03:32;;;;;;;56.88;22.23;;;8.70;94.60;;;;;;4972141;28;20039;-70
2021/11/15 06:05:58;;;;;;;51.88;22.33;;;8.70;94.50;;;;;;4971963;28;20018;-71
2021/11/15 06:08:24;;;;;;;58.92;22.95;;;8.60;94.60;;;;;;4972494;28;20357;-71
2021/11/15 06:10:49;;;;;;;59.83;23.27;;;8.50;94.60;;;;;;4966832;28;20038;-72
2021/11/15 06:13:15;;;;;;;47.83;20.73;;;8.50;94.60;;;;;;4952620;29;20027;-72
2021/11/15 06:15:41;;;;;;;50.85;20.88;;;8.50;94.60;;;;;;4952974;29;20032;-72
2021/11/15 06:18:07;;;;;;;57.38;23.25;;;8.60;94.60;;;;;;4952728;29;20023;-72
2021/11/15 06:20:33;;;;;;;55.47;22.90;;;8.70;94.60;;;;;;4953151;29;20719;-72
2021/11/15 06:22:59;;;;;;;53.15;22.08;;;8.60;94.60;;;;;;4952879;29;20057;-70
2021/11/15 06:25:25;;;;;;;56.33;23.85;;;8.60;94.60;;;;;;4952587;29;20039;-72
2021/11/15 06:27:51;;;;;;;60.90;24.40;;;8.60;94.60;;;;;;4935937;29;20039;-71
2021/11/15 06:30:19;;;;;;;62.88;25.63;;;8.60;94.70;;;;;;4951897;29;20480;-72
2021/11/15 06:32:46;;;;;;;55.55;22.33;;;8.50;94.80;;;;;;4953313;29;20110;-73
2021/11/15 06:35:12;;;;;;;54.10;21.55;;;8.60;94.80;;;;;;4953670;28;20341;-72
2021/11/15 06:37:39;;;;;;;55.10;22.08;;;8.60;94.70;;;;;;4956311;29;20035;-70
2021/11/15 06:40:06;;;;;;;50.88;22.48;;;8.60;94.60;;;;;;4956340;29;20375;-71
2021/11/15 06:42:32;;;;;;;62.00;23.48;;;8.70;94.70;;;;;;4956526;29;20039;-70
2021/11/15 06:44:58;;;;;;;49.25;20.20;;;8.70;94.70;;;;;;4956003;29;20031;-73
2021/11/15 06:47:23;;;;;;;43.83;18.63;;;8.70;94.60;;;;;;4936609;29;20075;-69
2021/11/15 06:49:54;;;;;;;54.70;20.80;;;8.60;94.40;;;;;;4921415;29;20024;-72
2021/11/15 06:52:21;;;;;;;59.13;22.08;;;8.70;94.50;;;;;;4938480;29;20068;-72
2021/11/15 06:54:48;;;;;;;53.67;20.80;;;8.70;94.60;;;;;;4938348;29;20107;-72
2021/11/15 06:57:14;;;;;;;47.75;18.48;;;8.60;94.60;;;;;;4938208;29;20265;-73
2021/11/15 06:59:39;;;;;;;46.95;19.98;;;8.70;94.70;;;;;;4937917;29;20505;-73
2021/11/15 07:02:05;;;;;;;55.42;20.48;;;8.70;94.60;;;;;;4938078;29;20028;-73
2021/11/15 07:04:31;;;;;;;50.33;18.35;;;8.70;94.60;;;;;;4941213;28;20421;-75
2021/11/15 07:06:57;;;;;;;47.08;19.90;;;8.70;94.40;;;;;;4957200;29;20110;-72
2021/11/15 07:09:22;;;;;;;47.60;20.55;;;8.70;94.50;;;;;;4945059;29;20023;-72
2021/11/15 07:11:50;;;;;;;42.42;17.95;;;8.70;94.60;;;;;;4955505;29;20027;-71
2021/11/15 07:14:16;;;;;;;43.83;19.07;;;8.70;94.50;;;;;;4940102;29;20124;-72
2021/11/15 07:16:41;;;;;;;51.78;21.35;;;8.70;94.50;;;;;;4936572;29;20031;-71
2021/11/15 07:19:07;;;;;;;42.80;18.80;;;8.80;94.50;;;;;;4936184;29;20138;-72
2021/11/15 07:21:33;;;;;;;46.53;20.10;;;8.80;94.40;;;;;;4936362;29;20028;-78
2021/11/15 07:23:58;;;;;;;52.85;21.30;;;8.80;94.50;;;;;;4936783;29;20045;-75
2021/11/15 07:26:24;;;;;;;48.65;19.15;;;8.80;94.50;;;;;;4919921;29;20490;-77
2021/11/15 07:28:50;;;;;;;44.38;18.63;;;8.80;94.40;;;;;;4919714;29;20024;-77
2021/11/15 07:31:17;;;;;;;49.22;19.83;;;8.80;94.40;;;;;;4936398;29;20110;-76
2021/11/15 07:33:42;;;;;;;42.25;18.75;;;8.80;94.30;;;;;;4911601;29;20035;-76
2021/11/15 07:36:08;;;;;;;46.03;19.20;;;8.80;94.30;;;;;;4936314;29;20130;-76
2021/11/15 07:38:34;;;;;;;46.15;19.88;;;8.80;94.40;;;;;;4919897;29;20365;-70
2021/11/15 07:41:00;;;;;;;47.90;20.15;;;8.80;94.30;;;;;;4935949;29;20037;-72
2021/11/15 07:43:25;;;;;;;45.88;18.85;;;8.90;94.30;;;;;;4935982;29;20040;-74
2021/11/15 07:45:51;;;;;;;45.38;18.40;;;8.80;94.20;;;;;;4935854;29;20123;-74
2021/11/15 07:48:17;;;;;;;47.20;18.50;;;8.90;94.30;;;;;;4935597;29;20031;-74
2021/11/15 07:50:44;;;;;;;44.42;19.55;;;8.90;94.30;;;;;;4935931;29;20426;-75
2021/11/15 07:53:10;;;;;;;44.28;17.58;;;8.90;94.30;;;;;;4936371;29;20115;-75
2021/11/15 07:55:35;;;;;;;47.05;20.30;;;8.90;94.20;;;;;;4919063;29;20118;-75
2021/11/15 07:58:04;;;;;;;45.38;19.17;;;8.90;94.20;;;;;;4918674;29;20043;-74
2021/11/15 08:00:30;;;;;;;44.63;19.40;;;8.90;94.30;;;;;;4935742;29;20035;-76
2021/11/15 08:02:55;;;;;;;47.65;20.92;;;8.90;94.30;;;;;;4935562;29;20373;-75
2021/11/15 08:05:22;;;;;;;47.40;18.92;;;8.90;94.20;;;;;;4936093;29;20042;-76
2021/11/15 08:07:48;;;;;;;46.55;19.52;;;9.00;94.20;;;;;;4935753;29;20035;-74
2021/11/15 08:10:15;;;;;;;48.60;20.33;;;9.00;94.20;;;;;;4935772;29;20387;-75
2021/11/15 08:12:44;;;;;;;44.50;18.58;;;9.00;94.20;;;;;;4918706;29;20070;-75
2021/11/15 08:15:16;;;;;;;50.70;20.38;;;9.00;94.50;;;;;;4918439;29;20031;-75
2021/11/15 08:17:44;;;;;;;53.55;21.52;;;9.00;94.10;;;;;;4935375;29;20023;-74
2021/11/15 08:20:17;;;;;;;50.47;21.05;;;9.00;94.20;;;;;;4935846;29;20387;-74
2021/11/15 08:22:47;;;;;;;50.90;20.17;;;9.00;94.10;;;;;;4935177;29;20031;-71
2021/11/15 08:25:36;;;;;;;46.83;19.83;;;9.10;94.00;;;;;;4934103;29;20115;-72
2021/11/15 08:28:02;;;;;;;53.83;20.80;;;9.10;94.00;;;;;;4934910;29;20035;-70
2021/11/15 08:30:27;;;;;;;54.97;22.25;;;9.10;94.00;;;;;;4935141;29;20035;-75
2021/11/15 08:32:54;;;;;;;53.25;21.38;;;9.10;94.00;;;;;;4934895;29;20346;-75
2021/11/15 08:35:22;;;;;;;47.53;20.73;;;9.10;94.00;;;;;;4935205;29;20024;-76
2021/11/15 08:38:15;;;;;;;53.83;21.95;;;9.10;93.90;;;;;;4934816;29;20441;-75
2021/11/15 08:40:45;;;;;;;55.13;21.83;;;9.10;93.90;;;;;;4934748;29;20039;-76
2021/11/15 08:43:14;;;;;;;50.45;20.85;;;9.10;94.00;;;;;;4934665;29;20036;-75
2021/11/15 08:45:39;;;;;;;48.45;20.67;;;9.10;93.90;;;;;;4934507;29;20119;-76
2021/11/15 08:48:05;;;;;;;57.10;21.88;;;9.10;93.90;;;;;;4934744;29;20118;-76
2021/11/15 08:50:31;;;;;;;44.95;19.42;;;9.10;93.80;;;;;;4918338;29;20036;-75
2021/11/15 08:52:57;;;;;;;48.53;20.13;;;9.00;93.90;;;;;;4934394;29;20042;-73
2021/11/15 08:55:25;;;;;;;53.65;22.02;;;9.00;93.90;;;;;;4934492;29;20036;-74
2021/11/15 08:57:51;;;;;;;47.25;20.75;;;9.00;94.10;;;;;;4934521;29;20058;-75
2021/11/15 09:00:17;;;;;;;61.30;22.05;;;9.00;94.30;;;;;;4934162;29;20067;-73
2021/11/15 09:02:44;;;;;;;47.55;20.40;;;9.00;94.10;;;;;;4934219;29;20473;-76
2021/11/15 09:05:10;;;;;;;44.92;19.38;;;9.10;93.90;;;;;;4934836;29;20050;-74
2021/11/15 09:07:37;;;;;;;52.00;20.65;;;9.10;94.00;;;;;;4934319;29;20069;-76
2021/11/15 09:10:05;;;;;;;49.97;19.45;;;9.10;93.80;;;;;;4933965;29;20028;-76
2021/11/15 09:12:32;;;;;;;53.85;20.23;;;9.10;93.70;;;;;;4934196;29;20035;-76
2021/11/15 09:14:58;;;;;;;52.58;21.40;;;9.10;93.80;;;;;;4934220;29;20404;-76
2021/11/15 09:17:24;;;;;;;51.25;19.98;;;9.10;93.70;;;;;;4934443;29;20438;-74
2021/11/15 09:19:50;;;;;;;50.17;20.60;;;9.10;93.60;;;;;;4934019;29;20473;-77
2021/11/15 09:22:16;;;;;;;42.58;18.30;;;9.10;93.70;;;;;;4933944;29;20056;-76
2021/11/15 09:24:43;;;;;;;45.30;20.20;;;9.10;93.60;;;;;;4917265;29;20043;-75
2021/11/15 09:27:13;;;;;;;47.45;18.60;;;9.20;93.70;;;;;;4934153;29;20023;-75
2021/11/15 09:29:39;;;;;;;41.60;19.13;;;9.20;93.70;;;;;;4933806;29;20059;-76
2021/11/15 09:32:06;;;;;;;47.08;20.27;;;9.20;93.60;;;;;;4934508;29;20034;-75
2021/11/15 09:34:32;;;;;;;41.00;18.58;;;9.20;93.60;;;;;;4934191;29;20031;-74
2021/11/15 09:36:57;;;;;;;48.22;19.52;;;9.20;93.60;;;;;;4933898;29;20525;-74
2021/11/15 09:39:24;;;;;;;41.78;18.35;;;9.20;93.60;;;;;;4933841;29;20046;-75
2021/11/15 09:41:50;;;;;;;41.33;18.02;;;9.10;93.60;;;;;;4934289;29;20478;-75
2021/11/15 09:44:16;;;;;;;44.75;19.15;;;9.30;93.70;;;;;;4934085;29;20068;-76
2021/11/15 09:46:42;;;;;;;42.35;18.10;;;9.30;93.70;;;;;;4917200;29;20039;-74
2021/11/15 09:49:11;;;;;;;40.35;18.10;;;9.30;93.60;;;;;;4916894;29;20148;-76
2021/11/15 09:51:39;;;;;;;43.53;19.00;;;9.20;93.50;;;;;;4933486;29;20431;-75
2021/11/15 09:54:06;;;;;;;47.00;18.98;;;9.30;93.60;;;;;;4916920;29;20036;-77
2021/11/15 09:56:32;;;;;;;47.15;17.73;;;9.30;93.60;;;;;;4917174;29;20478;-76
2021/11/15 09:58:59;;;;;;;37.88;17.52;;;9.30;93.60;;;;;;4933315;29;20040;-75
2021/11/15 10:01:25;;;;;;;46.45;19.20;;;9.30;93.70;;;;;;4933707;29;20034;-75
2021/11/15 10:03:51;;;;;;;49.17;19.67;;;9.30;93.60;;;;;;4933514;29;20044;-77
2021/11/15 10:06:17;;;;;;;39.35;17.17;;;9.30;93.60;;;;;;4933518;29;20431;-76
2021/11/15 10:08:52;;;;;;;39.08;17.80;;;9.30;93.50;;;;;;4933551;29;20024;-75
2021/11/15 10:11:20;;;;;;;40.55;17.10;;;9.30;93.60;;;;;;4937260;29;20012;-77
2021/11/15 10:13:46;;;;;;;46.55;19.15;;;9.40;93.80;;;;;;4920455;29;20513;-78
2021/11/15 10:16:16;;;;;;;40.88;17.73;;;9.40;93.70;;;;;;4937291;29;20040;-79
2021/11/15 10:18:58;;;;;;;44.53;17.98;;;9.40;93.70;;;;;;4937228;29;20039;-72
2021/11/15 10:21:41;;;;;;;38.53;16.70;;;9.40;93.70;;;;;;4937018;29;20473;-72
2021/11/15 10:24:14;;;;;;;36.28;16.55;;;9.40;93.70;;;;;;4937182;29;20044;-74
2021/11/15 10:26:50;;;;;;;35.65;16.67;;;9.40;93.70;;;;;;4937174;29;20100;-77
2021/11/15 10:29:22;;;;;;;45.35;17.52;;;9.50;93.70;;;;;;4937479;29;20095;-72
2021/11/15 10:31:51;;;;;;;38.10;17.80;;;9.50;93.80;;;;;;4937142;29;20131;-71
2021/11/15 10:34:38;;;;;;;40.20;17.38;;;9.60;93.80;;;;;;4937114;29;20347;-71
2021/11/15 10:37:15;;;;;;;41.70;17.40;;;9.60;93.70;;;;;;4937077;29;20335;-76
2021/11/15 10:39:46;;;;;;;38.33;18.03;;;9.60;93.60;;;;;;4936785;29;20054;-76
2021/11/15 10:42:28;;;;;;;35.38;17.42;;;9.70;93.70;;;;;;4936902;29;20155;-76
2021/11/15 10:45:06;;;;;;;34.58;16.02;;;9.70;93.40;;;;;;4936608;29;20500;-75
2021/11/15 10:47:32;;;;;;;;;;;9.60;93.30;;;;;;4937714;29;20031;-78
2021/11/15 10:50:05;;;;;;;34.53;16.08;;;9.60;93.40;;;;;;4919780;29;19918;-79
2021/11/15 10:52:34;;;;;;;39.35;15.75;;;9.70;93.40;;;;;;4936633;29;20690;-77
2021/11/15 10:55:03;;;;;;;38.75;17.17;;;9.60;93.30;;;;;;4919455;29;20488;-77
2021/11/15 10:57:37;;;;;;;34.47;16.90;;;9.50;93.30;;;;;;4919654;29;20091;-77
2021/11/15 11:00:08;;;;;;;37.95;17.13;;;9.60;93.50;;;;;;4936406;29;20036;-77
2021/11/15 11:02:37;;;;;;;36.35;16.95;;;9.60;93.50;;;;;;4936841;29;20508;-77
2021/11/15 11:05:24;;;;;;;38.78;17.60;;;9.60;93.50;;;;;;4936328;29;20047;-77
2021/11/15 11:08:20;;;;;;;36.92;17.73;;;9.70;93.30;;;;;;4919783;29;20470;-77
2021/11/15 11:10:52;;;;;;;41.90;17.58;;;9.70;93.20;;;;;;4936332;29;20039;-71
2021/11/15 11:13:20;;;;;;;42.85;17.80;;;9.50;93.00;;;;;;4936149;29;20126;-71
2021/11/15 11:15:49;;;;;;;38.95;17.50;;;9.60;93.30;;;;;;4918724;29;20040;-72
2021/11/15 11:18:37;;;;;;;38.05;18.05;;;9.60;93.30;;;;;;4936061;29;20024;-72
2021/11/15 11:24:21;;;;;;;38.38;18.00;;;9.30;93.20;;;;;;4936139;29;20469;-76
2021/11/15 11:26:46;;;;;;;34.92;17.10;;;9.50;93.50;;;;;;4935291;29;20051;-72
2021/11/15 11:29:22;;;;;;;48.47;19.15;;;9.60;93.30;;;;;;4936274;29;20099;-77
2021/11/15 11:31:52;;;;;;;40.78;18.05;;;9.60;93.30;;;;;;4919187;29;20035;-76
2021/11/15 11:34:19;;;;;;;36.22;16.35;;;9.70;93.20;;;;;;4935720;29;20048;-77
2021/11/15 11:36:45;;;;;;;42.75;18.08;;;9.70;93.20;;;;;;4935868;29;20051;-76
2021/11/15 11:39:11;;;;;;;56.83;22.55;;;9.70;93.00;;;;;;4935930;29;20060;-76
2021/11/15 11:41:44;;;;;;;56.28;24.70;;;9.70;93.00;;;;;;4936289;29;20510;-76
2021/11/15 11:44:12;;;;;;;57.83;26.10;;;9.80;93.00;;;;;;4935823;29;20487;-75
2021/11/15 11:46:42;;;;;;;45.90;21.75;;;9.80;93.10;;;;;;4935865;29;20024;-74
2021/11/15 11:49:14;;;;;;;50.28;22.38;;;9.80;93.10;;;;;;4935679;29;20111;-75
2021/11/15 11:51:41;;;;;;;58.45;25.73;;;9.70;92.90;;;;;;4935442;29;20035;-75
2021/11/15 11:54:17;;;;;;;52.30;21.92;;;9.80;93.00;;;;;;4935602;29;20468;-75
2021/11/15 11:56:59;;;;;;;47.78;22.13;;;9.70;92.70;;;;;;4935245;29;20058;-74
2021/11/15 11:59:25;;;;;;;48.33;20.95;;;9.60;92.60;;;;;;4918201;29;20161;-74
2021/11/15 12:01:57;;;;;;;45.47;20.25;;;9.60;92.90;;;;;;4935686;29;20032;-77
2021/11/15 12:04:25;;;;;;;42.33;19.83;;;9.70;92.70;;;;;;4935199;29;20050;-73
2021/11/15 12:06:50;;;;;;;44.03;21.05;;;9.70;92.60;;;;;;4935379;29;20039;-76
2021/11/15 12:09:22;;;;;;;48.80;22.00;;;9.40;92.70;;;;;;4935252;29;20043;-75
2021/11/15 12:12:00;;;;;;;40.85;19.85;;;9.40;92.70;;;;;;4935065;29;20028;-76
2021/11/15 12:14:35;;;;;;;50.50;21.85;;;9.30;92.90;;;;;;4935768;29;20020;-77
2021/11/15 12:17:08;;;;;;;48.45;21.38;;;9.30;92.90;;;;;;4935112;29;20200;-75
2021/11/15 12:19:49;;;;;;;47.38;21.13;;;9.50;93.00;;;;;;4935035;29;20449;-75
2021/11/15 12:22:25;;;;;;;45.28;21.02;;;9.50;92.90;;;;;;4934797;29;20036;-75
2021/11/15 12:25:13;;;;;;;60.78;26.95;;;9.40;92.90;;;;;;4934981;29;20074;-76
2021/11/15 12:27:46;;;;;;;53.65;22.55;;;9.20;92.90;;;;;;4934818;29;20036;-75
2021/11/15 12:30:15;;;;;;;51.63;22.65;;;9.30;93.10;;;;;;4934822;29;20028;-72
2021/11/15 12:32:42;;;;;;;54.05;22.63;;;9.30;93.10;;;;;;4934398;29;20104;-72
2021/11/15 12:35:09;;;;;;;51.78;23.73;;;9.20;93.50;;;;;;4935215;29;20111;-73
2021/11/15 12:37:37;;;;;;;67.57;29.13;;;9.20;93.40;;;;;;4934792;29;20062;-78
2021/11/15 12:40:07;;;;;;;62.08;25.13;;;9.20;93.40;;;;;;4934528;29;20044;-78
2021/11/15 12:42:33;;;;;;;61.17;26.15;;;9.20;93.30;;;;;;4917809;29;20132;-78
2021/11/15 12:45:09;;;;;;;54.30;23.50;;;9.20;93.50;;;;;;4934396;29;20028;-78
2021/11/15 12:47:45;;;;;;;58.97;26.17;;;9.00;93.50;;;;;;4918018;29;20078;-77
2021/11/15 12:50:22;;;;;;;61.55;26.27;;;9.00;93.60;;;;;;4934476;29;20134;-77
2021/11/15 12:52:55;;;;;;;56.90;25.63;;;9.10;93.60;;;;;;4934533;29;20055;-77
2021/11/15 12:55:22;;;;;;;59.00;26.75;;;9.20;93.50;;;;;;4934473;29;20042;-77
2021/11/15 12:57:58;;;;;;;58.70;26.10;;;9.20;93.50;;;;;;4917686;29;20047;-78
2021/11/15 13:00:28;;;;;;;56.03;26.75;;;9.40;93.30;;;;;;4917614;29;20283;-77
2021/11/15 13:03:05;;;;;;;60.85;26.58;;;9.40;93.40;;;;;;4934076;29;20078;-78
2021/11/15 13:05:32;;;;;;;59.00;26.58;;;9.40;93.30;;;;;;4934527;29;20032;-78
2021/11/15 13:08:03;;;;;;;63.13;27.38;;;9.40;93.20;;;;;;4934192;29;20040;-76
2021/11/15 13:10:30;;;;;;;60.95;26.27;;;9.40;93.10;;;;;;4934192;29;20083;-78
2021/11/15 13:12:57;;;;;;;57.90;26.45;;;9.50;93.20;;;;;;4934025;29;20119;-77
2021/11/15 13:15:23;;;;;;;60.45;25.83;;;9.50;93.20;;;;;;4934140;29;20480;-77
2021/11/15 13:17:49;;;;;;;56.00;25.40;;;9.50;93.20;;;;;;4917471;29;20046;-80
2021/11/15 13:20:15;;;;;;;65.13;26.20;;;9.50;93.30;;;;;;4917469;29;20450;-76
2021/11/15 13:22:43;;;;;;;58.17;26.33;;;9.50;93.20;;;;;;4934075;29;20462;-73
2021/11/15 13:25:11;;;;;;;61.63;26.25;;;9.40;93.10;;;;;;4933979;29;20032;-72
2021/11/15 13:27:37;;;;;;;73.50;32.43;;;9.30;93.30;;;;;;4934017;29;20043;-77
2021/11/15 13:30:09;;;;;;;58.05;25.48;;;9.30;93.60;;;;;;4933922;29;20111;-76
2021/11/15 13:32:35;;;;;;;49.30;23.05;;;9.30;93.40;;;;;;4934336;29;20023;-74
2021/11/15 13:35:01;;;;;;;54.20;23.42;;;9.40;93.30;;;;;;4934198;29;20031;-74
2021/11/15 13:37:26;;;;;;;55.60;25.00;;;9.40;93.10;;;;;;4933922;29;20454;-78
2021/11/15 13:39:53;;;;;;;58.42;26.45;;;9.30;93.20;;;;;;4933855;29;20099;-77
2021/11/15 13:42:20;;;;;;;50.75;22.90;;;9.40;93.10;;;;;;4933894;29;20032;-77
2021/11/15 13:44:46;;;;;;;62.10;26.17;;;9.40;92.90;;;;;;4916302;29;20045;-76
2021/11/15 13:47:20;;;;;;;52.17;22.10;;;9.40;92.90;;;;;;4917604;29;20418;-76
2021/11/15 13:49:46;;;;;;;56.90;23.00;;;9.40;93.00;;;;;;4917020;29;20032;-70
2021/11/15 13:52:12;;;;;;;58.65;24.42;;;9.50;93.10;;;;;;4933870;29;20365;-71
2021/11/15 13:54:42;;;;;;;58.97;23.60;;;9.50;92.90;;;;;;4916486;29;20394;-76
2021/11/15 13:57:08;;;;;;;53.22;22.30;;;9.50;92.90;;;;;;4933728;29;20493;-70
2021/11/15 13:59:34;;;;;;;49.95;23.85;;;9.50;92.80;;;;;;4934037;29;20027;-71
2021/11/15 14:02:00;;;;;;;62.10;25.85;;;9.50;92.90;;;;;;4933657;29;20229;-71
2021/11/15 14:04:26;;;;;;;60.92;25.25;;;9.50;92.90;;;;;;4933393;29;20043;-69
2021/11/15 14:06:51;;;;;;;57.00;25.15;;;9.40;92.80;;;;;;4933565;29;20035;-70